This is the latest recevied weather packets stored in our database for station/object FW9167. If no packets are shown the sender has not sent any weather packets the latest 10 day(s).
| Time | Temp. | Humidity | Pressure | Rain* | Wind** | Luminosity | Snow |
|---|---|---|---|---|---|---|---|
| 1778071561 | 6.67° C | 75% | 1017.6 hPa | 0 mm | - | - | - |
| 1778059862 | 9.44° C | 61% | 1016.1 hPa | 0 mm | - | - | - |
| 1778049962 | 10.56° C | 61% | 1015.1 hPa | 0 mm | - | - | - |
| 1778048162 | 11.67° C | 58% | 1014.7 hPa | 0 mm | - | - | - |
| 1778036462 | 18.89° C | 40% | 1012.1 hPa | 0 mm | - | - | - |
| 1778023862 | 23.89° C | 29% | 1010.3 hPa | 0 mm | - | - | - |
| 1778006764 | 23.33° C | 30% | 1011.8 hPa | 0 mm | - | - | - |
| 1778005863 | 23.33° C | 33% | 1011.7 hPa | 0 mm | - | - | - |
| 1778000465 | 20° C | 48% | 1012.3 hPa | 0 mm | - | - | - |
| 1777997762 | 18.89° C | 50% | 1012.3 hPa | 0 mm | - | - | - |
| 1777995062 | 18.33° C | 53% | 1012.1 hPa | 0 mm | - | - | - |
| 1777994163 | 18.33° C | 53% | 1012 hPa | 0 mm | - | - | - |
| 1777991464 | 16.67° C | 59% | 1011.9 hPa | 0 mm | - | - | - |
| 1777988764 | 11.11° C | 71% | 1011.6 hPa | 0 mm | - | - | - |
| 1777985163 | 8.33° C | 75% | 1010.8 hPa | 0 mm | - | - | - |
| 1777983362 | 9.44° C | 69% | 1010.4 hPa | 0 mm | - | - | - |
| 1777978862 | 10° C | 65% | 1009.9 hPa | 0 mm | - | - | - |
| 1777974364 | 10.56° C | 64% | 1009.5 hPa | 0 mm | - | - | - |
| 1777967167 | 12.22° C | 61% | 1009.5 hPa | 0 mm | - | - | - |
| 1777964464 | 11.11° C | 64% | 1009.3 hPa | 0 mm | - | - | - |
| 1777958162 | 11.67° C | 65% | 1009.3 hPa | 0 mm | - | - | - |
| 1777953662 | 16.67° C | 48% | 1008.5 hPa | 0 mm | - | - | - |
| 1777951863 | 17.22° C | 45% | 1008 hPa | 0 mm | - | - | - |
| 1777950963 | 18.33° C | 42% | 1007.6 hPa | 0 mm | - | - | - |
| 1777949162 | 21.11° C | 33% | 1007.4 hPa | 0 mm | - | - | - |
* Rain since midnight (hover to see other rain measurements)
** Current wind speed in m/s (hover to see current wind gust speed)